Time;durP1;ratioP1;P1;durP2;ratioP2;P2;SDS_P1;SDS_P2;PMS_P1;PMS_P2;Temp;Humidity;BMP_temperature;BMP_pressure;BME280_temperature;BME280_humidity;BME280_pressure;Samples;Min_cycle;Max_cycle;Signal;HPM_P1;HPM_P2
2022/12/02 00:09:34;;;;;;;27.77;8.93;;;3.40;99.90;;;;;;6417375;22;20051;-87
2022/12/02 00:12:12;;;;;;;22.17;8.27;;;3.40;99.90;;;;;;6389313;22;20093;-86
2022/12/02 00:14:39;;;;;;;18.05;8.10;;;3.40;99.90;;;;;;6416113;22;20064;-87
2022/12/02 00:17:10;;;;;;;20.90;8.30;;;3.50;99.90;;;;;;6364180;22;19994;-87
2022/12/02 00:19:36;;;;;;;21.35;8.15;;;3.50;99.90;;;;;;6389639;22;20044;-88
2022/12/02 00:22:18;;;;;;;23.30;8.68;;;3.50;99.90;;;;;;6337532;22;19994;-87
2022/12/02 00:27:19;;;;;;;23.20;7.93;;;3.50;99.90;;;;;;6381716;22;20022;-87
2022/12/02 00:35:36;;;;;;;30.45;9.52;;;3.50;99.90;;;;;;6413357;22;20026;-88
2022/12/02 00:41:00;;;;;;;21.95;8.48;;;3.50;99.90;;;;;;6414269;22;20022;-89
2022/12/02 00:52:58;;;;;;;24.75;8.75;;;3.40;99.90;;;;;;6384946;22;20026;-89
2022/12/02 01:06:39;;;;;;;22.65;8.57;;;3.30;99.90;;;;;;6367289;22;20030;-91
2022/12/02 01:09:22;;;;;;;18.65;8.40;;;3.30;99.90;;;;;;6335657;22;20024;-90
2022/12/02 01:11:51;;;;;;;22.05;8.27;;;3.30;99.90;;;;;;6333385;22;20025;-91
2022/12/02 01:14:27;;;;;;;20.35;7.47;;;3.20;99.90;;;;;;6310329;22;20018;-89
2022/12/02 01:17:20;;;;;;;21.45;8.90;;;3.30;99.90;;;;;;6333241;22;20017;-89
2022/12/02 01:19:46;;;;;;;23.92;8.18;;;3.20;99.90;;;;;;6333199;22;20020;-91
2022/12/02 01:27:36;;;;;;;22.80;8.05;;;3.20;99.90;;;;;;6374568;22;20507;-90
2022/12/02 01:30:02;;;;;;;24.98;9.55;;;3.20;99.90;;;;;;6332533;22;20022;-89
2022/12/02 01:32:53;;;;;;;22.23;8.52;;;3.20;99.90;;;;;;6307853;22;20015;-88
2022/12/02 01:35:22;;;;;;;22.65;8.88;;;3.20;99.90;;;;;;6357763;22;20018;-90
2022/12/02 01:37:48;;;;;;;22.05;8.35;;;3.20;99.90;;;;;;6333424;22;20049;-91
2022/12/02 01:40:26;;;;;;;21.77;9.10;;;3.20;99.90;;;;;;6308289;22;20022;-88
2022/12/02 02:00:15;;;;;;;24.02;8.77;;;3.10;99.90;;;;;;6389216;22;20081;-89
2022/12/02 02:03:05;;;;;;;25.23;9.18;;;3.10;99.90;;;;;;6389484;22;20447;-90
2022/12/02 02:05:52;;;;;;;25.83;9.13;;;3.10;99.90;;;;;;6390331;22;20018;-90
2022/12/02 02:11:02;;;;;;;24.10;9.50;;;3.10;99.90;;;;;;6369116;22;20022;-91
2022/12/02 02:29:01;;;;;;;25.15;9.38;;;3.10;99.90;;;;;;6359579;22;20030;-91
2022/12/02 02:31:27;;;;;;;21.25;8.90;;;3.10;99.90;;;;;;6281619;22;20033;-93
2022/12/02 02:33:53;;;;;;;24.65;9.27;;;3.10;99.90;;;;;;6333543;22;20018;-90
2022/12/02 02:39:00;;;;;;;26.48;9.38;;;3.10;99.90;;;;;;6367702;22;20022;-91
2022/12/02 02:41:27;;;;;;;19.88;7.70;;;3.00;99.90;;;;;;6332955;22;20026;-91
2022/12/02 02:43:56;;;;;;;28.13;10.17;;;3.10;99.90;;;;;;6334065;22;20018;-92
2022/12/02 02:46:27;;;;;;;22.63;8.77;;;3.00;99.90;;;;;;6358893;22;20249;-90
2022/12/02 02:48:53;;;;;;;22.17;9.18;;;3.00;99.90;;;;;;6334677;22;20018;-91
2022/12/02 02:53:55;;;;;;;24.23;7.88;;;3.00;99.90;;;;;;6393831;22;20117;-90
2022/12/02 02:56:41;;;;;;;21.42;7.32;;;3.00;99.90;;;;;;6370997;22;20048;-90
2022/12/02 02:59:13;;;;;;;21.60;7.13;;;3.00;99.90;;;;;;6366104;22;20020;-89
2022/12/02 03:01:45;;;;;;;20.67;8.15;;;2.90;99.90;;;;;;6392952;22;20021;-89
2022/12/02 03:04:15;;;;;;;22.33;7.68;;;2.90;99.90;;;;;;6391862;22;19998;-90
2022/12/02 03:12:12;;;;;;;24.90;8.45;;;2.90;99.90;;;;;;6372262;22;20022;-90
2022/12/02 03:14:39;;;;;;;22.55;7.05;;;2.80;99.90;;;;;;6333739;22;20014;-90
2022/12/02 03:17:08;;;;;;;19.50;7.65;;;2.90;99.90;;;;;;6335888;22;20020;-89
2022/12/02 03:19:41;;;;;;;26.88;8.80;;;2.90;99.90;;;;;;6335757;22;20015;-89
2022/12/02 03:22:08;;;;;;;24.65;9.10;;;2.80;99.90;;;;;;6337117;22;20010;-90
2022/12/02 03:24:34;;;;;;;23.10;8.60;;;2.80;99.90;;;;;;6361866;22;20026;-89
2022/12/02 03:27:08;;;;;;;24.42;8.98;;;2.80;99.90;;;;;;6360352;22;20010;-90
2022/12/02 03:32:10;;;;;;;22.35;8.27;;;2.80;99.90;;;;;;6395499;22;20032;-89
2022/12/02 03:37:16;;;;;;;19.05;8.43;;;2.80;99.90;;;;;;6350867;22;20023;-89
2022/12/02 03:39:42;;;;;;;24.80;7.38;;;2.80;99.90;;;;;;6274325;22;20015;-90
2022/12/02 03:42:28;;;;;;;22.92;7.00;;;2.80;99.90;;;;;;6248108;22;20070;-88
2022/12/02 03:45:16;;;;;;;20.15;7.35;;;2.80;99.90;;;;;;6273571;22;20065;-89
2022/12/02 04:13:36;;;;;;;19.80;7.85;;;2.80;99.90;;;;;;6360036;22;20030;-90
2022/12/02 04:18:51;;;;;;;22.40;7.90;;;2.80;99.90;;;;;;6350767;22;20030;-88
2022/12/02 04:21:16;;;;;;;18.73;7.13;;;2.80;99.90;;;;;;6332631;22;20018;-89
2022/12/02 04:23:42;;;;;;;21.93;7.77;;;2.80;99.90;;;;;;6332067;22;20002;-89
2022/12/02 04:26:08;;;;;;;18.20;6.60;;;2.80;99.90;;;;;;6333102;22;20064;-89
2022/12/02 04:31:09;;;;;;;26.17;7.97;;;2.80;99.90;;;;;;6383391;22;20018;-90
2022/12/02 04:36:38;;;;;;;21.63;7.93;;;2.80;99.90;;;;;;6371194;22;20230;-89
2022/12/02 04:39:08;;;;;;;22.00;8.05;;;2.90;99.90;;;;;;6334995;22;20046;-89
2022/12/02 04:41:59;;;;;;;18.52;6.72;;;2.90;99.90;;;;;;6334443;22;20010;-89
2022/12/02 04:44:29;;;;;;;21.90;8.07;;;2.90;99.90;;;;;;6337455;22;20018;-89
2022/12/02 04:47:19;;;;;;;24.00;6.93;;;2.90;99.90;;;;;;6334985;22;20018;-89
2022/12/02 04:54:55;;;;;;;22.77;7.68;;;2.90;99.90;;;;;;6373745;22;20006;-88
2022/12/02 04:59:57;;;;;;;27.38;9.52;;;2.90;99.90;;;;;;6389587;22;20001;-88
2022/12/02 05:02:55;;;;;;;;;;;2.90;99.90;;;;;;6339954;22;20021;-89
2022/12/02 05:08:48;;;;;;;27.15;8.82;;;2.90;99.90;;;;;;6417221;22;20027;-88
2022/12/02 05:11:18;;;;;;;23.55;8.32;;;2.90;99.90;;;;;;6392342;22;20043;-88
2022/12/02 05:16:21;;;;;;;26.30;7.90;;;3.00;99.90;;;;;;6383743;22;20026;-90
2022/12/02 05:21:22;;;;;;;29.17;9.20;;;3.00;99.90;;;;;;6387986;22;20032;-88
2022/12/02 05:23:53;;;;;;;29.80;8.68;;;3.00;99.90;;;;;;6365540;22;20018;-89
2022/12/02 05:41:10;;;;;;;26.13;8.43;;;3.00;99.90;;;;;;6381266;22;20030;-89
2022/12/02 05:43:42;;;;;;;27.98;8.27;;;3.00;99.90;;;;;;6362858;22;20093;-87
2022/12/02 05:46:36;;;;;;;24.73;8.20;;;2.90;99.90;;;;;;6334389;22;20018;-89
2022/12/02 05:49:14;;;;;;;24.98;7.53;;;2.90;99.90;;;;;;6334422;22;20380;-89
2022/12/02 05:56:51;;;;;;;24.08;7.57;;;3.00;99.90;;;;;;6397551;22;20002;-88
2022/12/02 05:59:34;;;;;;;27.85;10.18;;;3.00;99.90;;;;;;6393042;22;20071;-90
2022/12/02 06:07:13;;;;;;;24.70;7.53;;;3.10;99.90;;;;;;6384924;22;20014;-88
2022/12/02 06:24:56;;;;;;;24.88;7.25;;;3.20;99.90;;;;;;6417111;22;20001;-90
2022/12/02 06:27:24;;;;;;;25.63;8.75;;;3.20;99.90;;;;;;6391887;22;20018;-89
2022/12/02 06:33:36;;;;;;;27.58;8.55;;;3.10;99.90;;;;;;6410609;22;20070;-91
2022/12/02 06:36:04;;;;;;;27.50;8.63;;;3.10;99.90;;;;;;6366696;22;20079;-92
2022/12/02 06:38:33;;;;;;;31.10;10.27;;;3.20;99.90;;;;;;6382003;22;20010;-91
2022/12/02 06:41:09;;;;;;;26.27;8.55;;;3.10;99.90;;;;;;6381052;22;20009;-92
2022/12/02 06:43:35;;;;;;;24.63;8.20;;;3.10;99.90;;;;;;6381168;22;20029;-93
2022/12/02 06:50:31;;;;;;;27.80;9.30;;;3.10;99.90;;;;;;6409245;22;20047;-92
2022/12/02 06:53:29;;;;;;;26.60;8.93;;;3.10;99.90;;;;;;6412489;22;20047;-92
2022/12/02 06:56:00;;;;;;;25.55;8.75;;;3.10;99.90;;;;;;6382888;22;20372;-95
2022/12/02 06:58:38;;;;;;;27.23;9.65;;;3.10;99.90;;;;;;6379271;22;20021;-94
2022/12/02 07:39:12;;;;;;;24.33;10.05;;;3.00;99.90;;;;;;6403811;22;20025;-90
2022/12/02 07:41:38;;;;;;;27.40;10.32;;;3.00;99.90;;;;;;6343791;22;20094;-91
2022/12/02 07:44:05;;;;;;;25.05;10.10;;;3.00;99.90;;;;;;6376489;22;20025;-91
2022/12/02 07:46:31;;;;;;;31.77;10.98;;;3.00;99.90;;;;;;6375690;22;20010;-94
2022/12/02 07:49:04;;;;;;;27.67;10.98;;;2.90;99.90;;;;;;6377680;22;20022;-92
2022/12/02 07:51:35;;;;;;;29.02;10.18;;;2.90;99.90;;;;;;6351076;22;20376;-92
2022/12/02 07:54:04;;;;;;;28.13;9.32;;;2.90;99.90;;;;;;6350366;22;20006;-91
2022/12/02 07:56:48;;;;;;;25.80;10.10;;;2.90;99.90;;;;;;6350992;22;20024;-90
2022/12/02 07:59:31;;;;;;;30.10;12.02;;;2.80;99.90;;;;;;6357801;22;20020;-92
2022/12/02 08:01:56;;;;;;;28.95;11.23;;;2.80;99.90;;;;;;6376911;22;20018;-91
2022/12/02 08:04:51;;;;;;;26.00;9.80;;;2.80;99.90;;;;;;6376518;22;20069;-91
2022/12/02 08:07:35;;;;;;;25.27;8.80;;;2.70;99.90;;;;;;6403178;22;20060;-90
2022/12/02 08:10:01;;;;;;;28.38;10.07;;;2.70;99.90;;;;;;6349741;22;20013;-90
2022/12/02 08:12:27;;;;;;;29.07;9.80;;;2.60;99.90;;;;;;6376004;22;20025;-89
2022/12/02 08:14:52;;;;;;;26.40;9.35;;;2.60;99.90;;;;;;6349907;22;20106;-89
2022/12/02 08:17:18;;;;;;;25.42;9.43;;;2.50;99.90;;;;;;6351157;22;20071;-89
2022/12/02 08:19:53;;;;;;;27.27;8.88;;;2.60;99.90;;;;;;6405319;22;20435;-93
2022/12/02 08:32:40;;;;;;;26.02;10.13;;;2.30;99.90;;;;;;6364761;22;20022;-90
2022/12/02 08:35:11;;;;;;;23.40;8.75;;;2.30;99.90;;;;;;6287965;22;20015;-92
2022/12/02 09:00:55;;;;;;;23.35;8.13;;;1.90;99.90;;;;;;6318439;22;20011;-88
2022/12/02 09:03:21;;;;;;;25.60;8.60;;;1.90;99.90;;;;;;6289121;22;20097;-90
2022/12/02 09:05:46;;;;;;;27.07;9.23;;;1.90;99.90;;;;;;6263186;22;20010;-89
2022/12/02 09:08:12;;;;;;;24.30;8.77;;;1.90;99.90;;;;;;6291107;22;20023;-88
2022/12/02 09:10:40;;;;;;;28.67;9.03;;;1.90;99.90;;;;;;6294072;22;20048;-90
2022/12/02 09:13:06;;;;;;;27.77;9.30;;;1.90;99.90;;;;;;6294185;22;20018;-93
2022/12/02 09:15:31;;;;;;;28.45;9.07;;;2.00;99.90;;;;;;6294993;22;20046;-89
2022/12/02 09:17:57;;;;;;;25.23;9.67;;;1.90;99.90;;;;;;6290927;22;20094;-92
2022/12/02 09:23:13;;;;;;;29.90;9.98;;;2.00;99.90;;;;;;6380970;22;20076;-90
2022/12/02 09:25:41;;;;;;;29.95;9.75;;;1.90;99.90;;;;;;6362528;22;20022;-88
2022/12/02 09:28:10;;;;;;;24.55;9.25;;;1.90;99.90;;;;;;6355305;22;20014;-91
2022/12/02 09:30:36;;;;;;;27.38;10.05;;;2.00;99.90;;;;;;6325544;22;20510;-89
2022/12/02 09:33:14;;;;;;;;;;;;;;;;;;;;;
2022/12/02 09:35:42;;;;;;;30.40;10.13;;;2.00;99.90;;;;;;6345502;22;20014;-89
2022/12/02 09:38:08;;;;;;;24.98;8.93;;;2.00;99.90;;;;;;6268870;22;20018;-91
2022/12/02 09:40:39;;;;;;;30.33;9.65;;;2.00;99.90;;;;;;6297164;22;20067;-90
2022/12/02 09:43:10;;;;;;;28.83;8.55;;;2.10;99.90;;;;;;6317806;22;20018;-90
2022/12/02 09:45:40;;;;;;;26.65;9.27;;;2.10;99.90;;;;;;6324668;22;20025;-90
2022/12/02 09:48:07;;;;;;;26.20;9.60;;;2.00;99.90;;;;;;6318516;22;20018;-91
2022/12/02 09:50:33;;;;;;;29.80;9.85;;;2.00;99.90;;;;;;6318142;22;20015;-91
2022/12/02 09:53:04;;;;;;;27.70;9.77;;;2.10;99.90;;;;;;6318635;22;20130;-89
2022/12/02 09:55:30;;;;;;;25.63;10.00;;;2.10;99.90;;;;;;6318769;22;20010;-89
2022/12/02 09:58:07;;;;;;;26.80;9.32;;;2.10;99.90;;;;;;6324647;22;20010;-91
2022/12/02 10:00:39;;;;;;;27.77;9.88;;;2.10;99.90;;;;;;6320905;22;20015;-90
2022/12/02 10:03:07;;;;;;;32.25;9.77;;;2.10;99.90;;;;;;6320374;22;20022;-89
2022/12/02 10:05:35;;;;;;;29.58;9.00;;;2.20;99.90;;;;;;6320482;22;20146;-89
2022/12/02 10:08:10;;;;;;;25.92;9.85;;;2.30;99.90;;;;;;6344710;22;20022;-91
2022/12/02 10:10:39;;;;;;;25.83;9.13;;;2.30;99.90;;;;;;6318054;22;20021;-90
2022/12/02 10:13:05;;;;;;;26.23;9.98;;;2.30;99.90;;;;;;6319510;22;20048;-94
2022/12/02 10:15:31;;;;;;;29.83;9.63;;;2.30;99.90;;;;;;6319477;22;20022;-89
2022/12/02 10:18:01;;;;;;;26.60;10.05;;;2.20;99.90;;;;;;6343962;22;20006;-90
2022/12/02 10:20:27;;;;;;;24.98;8.90;;;2.20;99.90;;;;;;6316381;22;20033;-89
2022/12/02 10:23:11;;;;;;;26.15;10.73;;;2.20;99.90;;;;;;6315653;22;20093;-88
2022/12/02 10:25:40;;;;;;;29.02;10.30;;;2.20;99.90;;;;;;6315887;22;20023;-89
2022/12/02 10:28:25;;;;;;;24.92;8.70;;;2.20;99.90;;;;;;6315084;22;20528;-90
2022/12/02 10:30:55;;;;;;;23.13;8.70;;;2.20;99.90;;;;;;6315893;22;20010;-95
2022/12/02 10:33:30;;;;;;;28.25;9.68;;;2.20;99.90;;;;;;6315757;22;20014;-89
2022/12/02 10:35:58;;;;;;;25.92;9.85;;;2.20;99.90;;;;;;6315356;22;20089;-88
2022/12/02 10:38:44;;;;;;;27.17;9.75;;;2.20;99.90;;;;;;6314824;22;20017;-88
2022/12/02 10:41:23;;;;;;;26.38;10.40;;;2.20;99.90;;;;;;6369104;22;20448;-89
2022/12/02 10:43:52;;;;;;;25.42;9.57;;;2.20;99.90;;;;;;6315751;22;20014;-89
2022/12/02 10:46:19;;;;;;;26.02;9.52;;;2.20;99.90;;;;;;6342450;22;20006;-92
2022/12/02 10:48:46;;;;;;;30.17;11.38;;;2.20;99.90;;;;;;6326543;22;20014;-86
2022/12/02 10:51:16;;;;;;;30.70;11.95;;;2.30;99.90;;;;;;6331327;22;20455;-88
2022/12/02 10:53:44;;;;;;;30.25;11.70;;;2.30;99.90;;;;;;6315253;22;20014;-90
2022/12/02 10:56:23;;;;;;;27.35;11.68;;;2.30;99.90;;;;;;6290151;22;20506;-90
2022/12/02 10:58:50;;;;;;;33.35;11.77;;;2.30;99.90;;;;;;6290374;22;20019;-89
2022/12/02 11:01:18;;;;;;;30.05;11.15;;;2.40;99.90;;;;;;6341674;22;20515;-91
2022/12/02 11:03:43;;;;;;;27.52;11.02;;;2.40;99.90;;;;;;6289555;22;20019;-89
2022/12/02 11:06:15;;;;;;;27.02;10.55;;;2.40;99.90;;;;;;6315753;22;20075;-88
2022/12/02 11:08:46;;;;;;;28.77;10.93;;;2.40;99.90;;;;;;6315121;22;20021;-91
2022/12/02 11:11:23;;;;;;;28.55;10.65;;;2.50;99.90;;;;;;6315292;22;20147;-88
2022/12/02 11:13:58;;;;;;;33.83;12.02;;;2.40;99.90;;;;;;6315223;22;20043;-89
2022/12/02 11:16:29;;;;;;;27.52;10.48;;;2.50;99.90;;;;;;6315379;22;20012;-89
2022/12/02 11:19:05;;;;;;;29.15;11.30;;;2.50;99.90;;;;;;6315191;22;20015;-89
2022/12/02 11:21:36;;;;;;;30.42;11.90;;;2.50;99.90;;;;;;6318176;22;20455;-88
2022/12/02 11:24:26;;;;;;;29.25;11.77;;;2.50;99.90;;;;;;6273816;22;1159951;-91
2022/12/02 11:27:01;;;;;;;25.23;11.18;;;2.50;99.90;;;;;;6316714;22;20393;-90
2022/12/02 11:29:28;;;;;;;25.95;10.50;;;2.50;99.90;;;;;;6315668;22;20015;-90
2022/12/02 11:32:20;;;;;;;30.42;12.98;;;2.50;99.90;;;;;;6315919;22;20014;-90
2022/12/02 11:34:50;;;;;;;26.67;10.70;;;2.50;99.90;;;;;;6316450;22;20018;-90
2022/12/02 11:37:25;;;;;;;26.35;10.85;;;2.50;99.90;;;;;;6317603;22;20336;-90
2022/12/02 11:39:52;;;;;;;22.60;9.90;;;2.50;99.90;;;;;;6318673;22;20091;-90
2022/12/02 11:42:39;;;;;;;27.08;10.13;;;2.60;99.90;;;;;;6318507;22;20017;-89
2022/12/02 11:45:17;;;;;;;25.20;11.35;;;2.60;99.90;;;;;;6318559;22;20029;-89
2022/12/02 11:47:53;;;;;;;25.80;10.38;;;2.60;99.90;;;;;;6318191;22;20052;-90
2022/12/02 11:50:40;;;;;;;25.20;9.85;;;2.60;99.90;;;;;;6318577;22;20014;-89
2022/12/02 11:53:20;;;;;;;23.98;10.35;;;2.60;99.90;;;;;;6344491;22;20010;-90
2022/12/02 11:55:48;;;;;;;24.80;9.50;;;2.70;99.90;;;;;;6319004;22;20014;-90
2022/12/02 11:58:28;;;;;;;29.73;11.95;;;2.70;99.90;;;;;;6345849;22;20014;-90
2022/12/02 12:01:06;;;;;;;24.48;9.40;;;2.70;99.90;;;;;;6318612;22;20092;-91
2022/12/02 12:03:33;;;;;;;28.25;11.07;;;2.70;99.90;;;;;;6320387;22;20089;-90
2022/12/02 12:06:12;;;;;;;26.23;10.38;;;2.70;99.90;;;;;;6321629;22;20014;-93
2022/12/02 12:08:41;;;;;;;27.35;10.30;;;2.70;99.90;;;;;;6319176;22;20026;-92
2022/12/02 12:11:23;;;;;;;25.60;10.00;;;2.70;99.90;;;;;;6294010;22;20094;-94
2022/12/02 12:14:10;;;;;;;23.77;10.05;;;2.70;99.90;;;;;;6319088;22;20068;-92
2022/12/02 12:16:42;;;;;;;24.85;9.32;;;2.70;99.90;;;;;;6319142;22;20022;-94
2022/12/02 12:19:11;;;;;;;19.02;8.73;;;2.70;99.90;;;;;;6318983;22;20483;-94
2022/12/02 12:21:49;;;;;;;22.55;8.65;;;2.70;99.90;;;;;;6345542;22;20026;-90
2022/12/02 12:24:19;;;;;;;21.15;8.45;;;2.70;99.90;;;;;;6318712;22;20064;-89
2022/12/02 12:26:55;;;;;;;23.92;9.43;;;2.70;99.90;;;;;;6319133;22;20440;-91
2022/12/02 12:29:24;;;;;;;17.70;7.72;;;2.70;99.90;;;;;;6320076;22;20056;-93
2022/12/02 12:31:50;;;;;;;20.27;8.02;;;2.70;99.90;;;;;;6319969;22;20018;-89
2022/12/02 12:34:15;;;;;;;20.67;8.35;;;2.70;99.90;;;;;;6344194;22;20018;-90
2022/12/02 12:36:42;;;;;;;19.73;8.13;;;2.60;99.90;;;;;;6317958;22;20036;-90
2022/12/02 12:39:08;;;;;;;17.98;7.93;;;2.70;99.90;;;;;;6317523;22;20057;-91
2022/12/02 12:41:35;;;;;;;19.92;7.20;;;2.70;99.90;;;;;;6292658;22;20016;-89
2022/12/02 12:44:01;;;;;;;20.08;7.22;;;2.60;99.90;;;;;;6327364;22;20018;-87
2022/12/02 12:46:27;;;;;;;19.30;7.22;;;2.60;99.90;;;;;;6362578;22;20020;-91
2022/12/02 12:48:52;;;;;;;20.92;7.85;;;2.50;99.90;;;;;;6295882;22;20404;-88
2022/12/02 12:51:18;;;;;;;18.17;7.93;;;2.50;99.90;;;;;;6318138;22;20093;-89
2022/12/02 12:53:44;;;;;;;15.55;6.85;;;2.50;99.90;;;;;;6317838;22;20052;-88
2022/12/02 12:56:10;;;;;;;21.27;8.03;;;2.50;99.90;;;;;;6317584;22;20010;-90
2022/12/02 12:58:35;;;;;;;19.87;8.03;;;2.50;99.90;;;;;;6317675;22;20026;-88
2022/12/02 13:01:01;;;;;;;18.85;7.32;;;2.50;99.90;;;;;;6317607;22;20010;-89
2022/12/02 13:03:27;;;;;;;26.30;9.60;;;2.40;99.90;;;;;;6317813;22;20018;-89
2022/12/02 13:05:52;;;;;;;16.63;7.72;;;2.40;99.90;;;;;;6317238;22;20465;-89
2022/12/02 13:08:18;;;;;;;21.73;9.03;;;2.40;99.90;;;;;;6291861;22;20101;-89
2022/12/02 13:10:44;;;;;;;24.60;9.27;;;2.40;99.90;;;;;;6291822;22;20015;-90
2022/12/02 13:13:10;;;;;;;21.95;8.82;;;2.40;99.90;;;;;;6291723;22;20019;-89
2022/12/02 13:15:35;;;;;;;26.42;10.70;;;2.40;99.90;;;;;;6291523;22;20067;-88
2022/12/02 13:18:01;;;;;;;26.03;10.33;;;2.40;99.90;;;;;;6343785;22;20014;-90
2022/12/02 13:20:27;;;;;;;22.48;8.95;;;2.30;99.90;;;;;;6317353;22;20014;-90
2022/12/02 13:22:53;;;;;;;27.90;11.20;;;2.30;99.90;;;;;;6291601;22;20049;-88
2022/12/02 13:26:15;;;;;;;24.40;9.73;;;2.30;99.90;;;;;;6317891;22;20019;-89
2022/12/02 13:28:41;;;;;;;21.15;9.05;;;2.30;99.90;;;;;;6317518;22;20063;-90
2022/12/02 13:31:06;;;;;;;22.02;9.23;;;2.30;99.90;;;;;;6291714;22;20014;-89
2022/12/02 13:33:32;;;;;;;25.95;9.90;;;2.20;99.90;;;;;;6343584;22;20112;-90
2022/12/02 13:35:58;;;;;;;21.50;8.95;;;2.20;99.90;;;;;;6317568;22;20089;-89
2022/12/02 13:38:24;;;;;;;26.98;10.70;;;2.20;99.90;;;;;;6317330;22;20344;-89
2022/12/02 13:40:49;;;;;;;21.73;9.82;;;2.20;99.90;;;;;;6292222;22;20014;-90
2022/12/02 13:43:15;;;;;;;25.77;10.32;;;2.30;99.90;;;;;;6317459;22;20071;-93
2022/12/02 13:45:43;;;;;;;23.77;9.87;;;2.30;99.90;;;;;;6291298;22;20017;-89
2022/12/02 13:48:09;;;;;;;24.05;9.65;;;2.30;99.90;;;;;;6317436;22;20014;-90
2022/12/02 13:50:35;;;;;;;28.60;10.87;;;2.30;99.90;;;;;;6317773;22;20011;-90
2022/12/02 13:53:00;;;;;;;25.97;10.10;;;2.30;99.90;;;;;;6317605;22;20014;-89
2022/12/02 13:55:26;;;;;;;27.90;10.43;;;2.30;99.90;;;;;;6317171;22;20029;-89
2022/12/02 13:57:52;;;;;;;27.13;11.47;;;2.30;99.90;;;;;;6317543;22;20340;-90
2022/12/02 14:00:18;;;;;;;27.58;10.82;;;2.30;99.90;;;;;;6317587;22;20071;-89
2022/12/02 14:02:44;;;;;;;24.30;9.50;;;2.30;99.90;;;;;;6291386;22;20014;-90
2022/12/02 14:05:10;;;;;;;22.20;9.18;;;2.30;99.90;;;;;;6292044;22;20072;-90
2022/12/02 14:07:36;;;;;;;25.43;9.20;;;2.30;99.90;;;;;;6317085;22;20332;-90
2022/12/02 14:10:03;;;;;;;28.07;11.37;;;2.30;99.90;;;;;;6343493;22;20050;-93
2022/12/02 14:12:29;;;;;;;23.48;9.43;;;2.30;99.90;;;;;;6317335;22;20014;-90
2022/12/02 14:14:55;;;;;;;23.73;9.68;;;2.40;99.90;;;;;;6343565;22;20018;-91
2022/12/02 14:17:20;;;;;;;27.45;9.77;;;2.30;99.90;;;;;;6317298;22;20013;-89
2022/12/02 14:19:46;;;;;;;24.17;9.80;;;2.30;99.90;;;;;;6343300;22;20057;-89
2022/12/02 14:22:12;;;;;;;24.15;10.60;;;2.30;99.90;;;;;;6317186;22;20014;-89
2022/12/02 14:24:38;;;;;;;25.60;10.15;;;2.30;99.90;;;;;;6265597;22;20022;-91
2022/12/02 14:27:03;;;;;;;26.67;10.73;;;2.30;99.90;;;;;;6290154;22;20071;-90
2022/12/02 14:29:29;;;;;;;25.45;10.15;;;2.40;99.90;;;;;;6290288;22;20018;-89
2022/12/02 14:31:55;;;;;;;28.63;11.37;;;2.40;99.90;;;;;;6342329;22;20018;-90
2022/12/02 14:34:20;;;;;;;26.17;10.63;;;2.40;99.90;;;;;;6265901;22;20033;-89
2022/12/02 14:36:46;;;;;;;25.80;10.65;;;2.40;99.90;;;;;;6316707;22;20316;-89
2022/12/02 14:39:12;;;;;;;28.55;10.65;;;2.40;99.90;;;;;;6317652;22;20435;-90
2022/12/02 14:41:38;;;;;;;33.27;14.23;;;2.40;99.90;;;;;;6317941;22;20017;-88
2022/12/02 14:44:03;;;;;;;28.97;11.27;;;2.40;99.90;;;;;;6319377;22;20018;-90
2022/12/02 14:46:29;;;;;;;27.93;11.17;;;2.40;99.90;;;;;;6303399;22;20098;-87
2022/12/02 14:48:56;;;;;;;26.60;11.07;;;2.40;99.90;;;;;;6296375;22;20014;-88
2022/12/02 14:51:22;;;;;;;;;;;2.40;99.90;;;;;;6315886;22;20017;-89
2022/12/02 14:53:47;;;;;;;25.67;10.23;;;2.40;99.90;;;;;;6289039;22;19946;-89
2022/12/02 14:56:13;;;;;;;28.20;11.00;;;2.40;99.90;;;;;;6316618;22;20022;-89
2022/12/02 14:58:39;;;;;;;30.20;11.75;;;2.40;99.90;;;;;;6313820;22;20018;-89
2022/12/02 15:01:05;;;;;;;25.97;9.77;;;2.40;99.90;;;;;;6316160;22;20010;-89
2022/12/02 15:03:30;;;;;;;32.38;11.23;;;2.40;99.90;;;;;;6316439;22;20345;-89
2022/12/02 15:05:56;;;;;;;27.17;10.87;;;2.50;99.90;;;;;;6316330;22;20059;-88
2022/12/02 15:08:22;;;;;;;27.25;10.77;;;2.50;99.90;;;;;;6316386;22;20015;-89
2022/12/02 15:10:47;;;;;;;27.92;10.55;;;2.50;99.90;;;;;;6316988;22;20093;-90
2022/12/02 15:13:13;;;;;;;29.10;11.30;;;2.50;99.90;;;;;;6292869;22;20018;-90
2022/12/02 15:15:39;;;;;;;25.67;10.18;;;2.50;99.90;;;;;;6318424;22;20011;-88
2022/12/02 15:18:05;;;;;;;25.45;10.20;;;2.50;99.90;;;;;;6318909;22;20010;-89
2022/12/02 15:20:30;;;;;;;24.88;10.45;;;2.50;99.90;;;;;;6318677;22;20089;-89
2022/12/02 15:22:56;;;;;;;26.98;11.02;;;2.50;99.90;;;;;;6318500;22;20014;-88
2022/12/02 15:25:22;;;;;;;21.45;9.40;;;2.50;99.90;;;;;;6317808;22;20018;-89
2022/12/02 15:27:47;;;;;;;34.70;14.73;;;2.50;99.90;;;;;;6344323;22;20017;-89
2022/12/02 15:30:13;;;;;;;29.10;11.15;;;2.50;99.90;;;;;;6318276;22;20311;-89
2022/12/02 15:32:39;;;;;;;29.60;11.40;;;2.50;99.90;;;;;;6267333;22;20542;-88
2022/12/02 15:35:07;;;;;;;30.63;11.25;;;2.50;99.90;;;;;;6318577;22;20018;-90
2022/12/02 15:37:33;;;;;;;27.27;10.57;;;2.50;99.90;;;;;;6318286;22;20508;-89
2022/12/02 15:39:58;;;;;;;34.83;10.85;;;2.50;99.90;;;;;;6319021;22;20019;-91
2022/12/02 15:42:24;;;;;;;31.77;11.68;;;2.40;99.90;;;;;;6292883;22;20018;-89
2022/12/02 15:44:50;;;;;;;33.00;12.18;;;2.50;99.90;;;;;;6318033;22;20014;-89
2022/12/02 15:47:16;;;;;;;26.00;10.50;;;2.50;99.90;;;;;;6318335;22;20018;-88
2022/12/02 15:49:41;;;;;;;31.13;10.90;;;2.50;99.90;;;;;;6372600;22;20018;-94
2022/12/02 15:52:09;;;;;;;30.92;12.20;;;2.50;99.90;;;;;;6319088;22;20089;-94
2022/12/02 15:54:35;;;;;;;29.92;11.80;;;2.50;99.90;;;;;;6318418;22;20018;-91
2022/12/02 15:57:00;;;;;;;31.60;11.63;;;2.50;99.90;;;;;;6293010;22;20017;-88
2022/12/02 15:59:27;;;;;;;25.52;11.00;;;2.50;99.90;;;;;;6291137;22;20018;-89
2022/12/02 16:01:52;;;;;;;27.60;10.43;;;2.50;99.90;;;;;;6291916;22;20014;-87
2022/12/02 16:04:18;;;;;;;27.47;11.07;;;2.50;99.90;;;;;;6317915;22;20010;-87
2022/12/02 16:06:44;;;;;;;28.43;10.73;;;2.50;99.90;;;;;;6292228;22;20022;-87
2022/12/02 16:09:09;;;;;;;32.97;14.37;;;2.50;99.90;;;;;;6291972;22;20022;-88
2022/12/02 16:11:35;;;;;;;26.67;10.32;;;2.50;99.90;;;;;;6318016;22;20014;-87
2022/12/02 16:14:01;;;;;;;32.30;12.55;;;2.50;99.90;;;;;;6343805;22;20022;-88
2022/12/02 16:16:27;;;;;;;34.53;14.30;;;2.50;99.90;;;;;;6292071;22;20069;-88
2022/12/02 16:18:52;;;;;;;31.20;11.75;;;2.50;99.90;;;;;;6317981;22;20010;-89
2022/12/02 16:21:18;;;;;;;29.98;11.32;;;2.60;99.90;;;;;;6318143;22;20014;-89
2022/12/02 16:23:44;;;;;;;30.85;10.75;;;2.60;99.90;;;;;;6317428;22;20015;-89
2022/12/02 16:26:11;;;;;;;29.57;11.10;;;2.60;99.90;;;;;;6344176;22;20022;-92
2022/12/02 16:28:38;;;;;;;28.98;12.68;;;2.60;99.90;;;;;;6317932;22;20097;-89
2022/12/02 16:31:04;;;;;;;26.15;11.10;;;2.60;99.90;;;;;;6317373;22;20163;-89
2022/12/02 16:33:30;;;;;;;30.70;11.27;;;2.60;99.90;;;;;;6292006;22;20455;-88
2022/12/02 16:35:55;;;;;;;30.42;10.95;;;2.60;99.90;;;;;;6317933;22;20010;-91
2022/12/02 16:38:21;;;;;;;24.20;10.35;;;2.50;99.90;;;;;;6317968;22;20014;-89
2022/12/02 16:40:47;;;;;;;31.33;10.93;;;2.60;99.90;;;;;;6319598;22;20014;-90
2022/12/02 16:43:35;;;;;;;28.65;11.98;;;2.60;99.90;;;;;;6324662;22;20014;-86
2022/12/02 16:46:00;;;;;;;30.95;11.48;;;2.60;99.90;;;;;;6327904;22;20018;-88
2022/12/02 16:48:26;;;;;;;28.92;11.48;;;2.50;99.90;;;;;;6268904;22;20025;-87
2022/12/02 16:50:52;;;;;;;28.33;10.53;;;2.60;99.90;;;;;;6343708;22;20018;-94
2022/12/02 16:53:18;;;;;;;37.90;17.70;;;2.60;99.90;;;;;;6343531;22;20011;-93
2022/12/02 16:55:44;;;;;;;34.88;13.18;;;2.60;99.90;;;;;;6318033;22;20258;-89
2022/12/02 16:58:37;;;;;;;30.17;11.90;;;2.60;99.90;;;;;;6318437;22;20018;-88
2022/12/02 17:04:35;;;;;;;25.67;11.05;;;2.60;99.90;;;;;;6343398;22;20032;-89
2022/12/02 17:07:01;;;;;;;29.60;11.55;;;2.60;99.90;;;;;;6317503;22;20018;-91
2022/12/02 17:09:30;;;;;;;28.83;11.33;;;2.60;99.90;;;;;;6291796;22;20018;-88
2022/12/02 17:11:59;;;;;;;26.23;10.57;;;2.60;99.90;;;;;;6317105;22;20018;-90
2022/12/02 17:15:02;;;;;;;29.58;10.88;;;2.60;99.90;;;;;;6343721;22;20034;-91
2022/12/02 17:17:41;;;;;;;25.35;10.68;;;2.60;99.90;;;;;;6317161;22;20451;-89
2022/12/02 17:20:07;;;;;;;25.13;10.18;;;2.60;99.90;;;;;;6317363;22;20466;-88
2022/12/02 17:22:33;;;;;;;31.20;10.95;;;2.60;99.90;;;;;;6317279;22;20015;-86
2022/12/02 17:24:59;;;;;;;26.55;9.63;;;2.60;99.90;;;;;;6286774;22;20075;-86
2022/12/02 17:27:34;;;;;;;22.15;9.38;;;2.60;99.90;;;;;;6343013;22;20447;-90
2022/12/02 17:32:36;;;;;;;24.08;9.55;;;2.60;99.90;;;;;;6370947;22;20444;-90
2022/12/02 17:35:02;;;;;;;22.92;9.55;;;2.60;99.90;;;;;;6343281;22;20022;-93